createdAt,value
2019-01-05T00:02:17.830Z,99.47
2019-01-05T00:04:47.785Z,99.58
2019-01-05T00:07:34.947Z,99.38
2019-01-05T00:10:05.349Z,99.39
2019-01-05T00:12:32.838Z,99.44
2019-01-05T00:15:17.974Z,99.44
2019-01-05T00:17:49.397Z,99.29
2019-01-05T00:20:16.871Z,99.28
2019-01-05T00:23:01.112Z,99.41
2019-01-05T00:25:45.358Z,99.75
2019-01-05T00:28:28.633Z,99.93
2019-01-05T00:31:07.827Z,99.90
2019-01-05T00:33:50.160Z,100.00
2019-01-05T00:36:23.238Z,100.00
2019-01-05T00:38:53.189Z,100.00
2019-01-05T00:41:36.301Z,99.84
2019-01-05T00:44:09.308Z,99.82
2019-01-05T00:46:53.544Z,99.56
2019-01-05T00:49:23.369Z,99.53
2019-01-05T00:51:52.672Z,99.30
2019-01-05T00:54:20.973Z,99.45
2019-01-05T00:56:48.451Z,99.65
2019-01-05T00:59:32.586Z,99.98
2019-01-05T01:02:16.885Z,100.00
2019-01-05T01:04:47.922Z,100.00
2019-01-05T01:07:20.995Z,100.00
2019-01-05T01:10:03.372Z,99.98
2019-01-05T01:12:32.747Z,99.54
2019-01-05T01:15:06.047Z,99.65
2019-01-05T01:17:34.745Z,99.76
2019-01-05T01:20:07.599Z,99.83
2019-01-05T01:22:50.166Z,99.66
2019-01-05T01:25:23.184Z,99.89
2019-01-05T01:27:56.437Z,100.00
2019-01-05T01:30:29.560Z,99.79
2019-01-05T01:33:02.612Z,99.52
2019-01-05T01:35:40.132Z,99.47
2019-01-05T01:38:30.469Z,99.29
2019-01-05T01:41:08.770Z,99.32
2019-01-05T01:43:41.882Z,99.28
2019-01-05T01:46:13.905Z,99.21
2019-01-05T01:48:57.124Z,99.25
2019-01-05T01:51:25.249Z,99.20
2019-01-05T01:53:58.228Z,99.10
2019-01-05T01:56:37.506Z,99.01
2019-01-05T01:59:06.858Z,99.01
2019-01-05T02:01:39.809Z,98.85
2019-01-05T02:04:23.052Z,98.89
2019-01-05T02:07:06.275Z,98.64
2019-01-05T02:09:50.410Z,98.80
2019-01-05T02:12:35.516Z,99.20
2019-01-05T02:15:09.363Z,99.00
2019-01-05T02:17:37.810Z,99.12
2019-01-05T02:20:13.549Z,99.13
2019-01-05T02:22:45.290Z,99.17
2019-01-05T02:25:20.543Z,99.37
2019-01-05T02:28:19.203Z,99.28
2019-01-05T02:30:53.155Z,99.33
2019-01-05T02:33:42.773Z,99.27
2019-01-05T02:36:16.997Z,98.73
2019-01-05T02:39:00.952Z,98.93
2019-01-05T02:41:38.123Z,98.80
2019-01-05T02:47:28.175Z,99.21
2019-01-05T02:50:22.760Z,99.40
2019-01-05T02:53:12.374Z,99.31
2019-01-05T02:55:51.355Z,99.67
2019-01-05T02:58:50.003Z,99.63
2019-01-05T03:01:51.018Z,99.67
2019-01-05T03:04:27.381Z,99.87
2019-01-05T03:07:18.847Z,99.91
2019-01-05T03:10:10.610Z,99.76
2019-01-05T03:12:46.566Z,99.51
2019-01-05T03:15:33.540Z,99.37
2019-01-05T03:18:23.909Z,99.19
2019-01-05T03:21:10.177Z,99.30
2019-01-05T03:23:51.689Z,99.81
2019-01-05T03:26:47.735Z,99.71
2019-01-05T03:29:23.114Z,99.45
2019-01-05T03:32:21.212Z,99.79
2019-01-05T03:35:29.967Z,100.00
2019-01-05T03:38:05.212Z,100.00
2019-01-05T03:40:55.206Z,99.37
2019-01-05T03:43:43.808Z,99.51
2019-01-05T03:46:51.535Z,99.78
2019-01-05T03:49:49.222Z,99.61
2019-01-05T03:52:24.480Z,100.00
2019-01-05T03:55:02.555Z,100.00
2019-01-05T03:57:35.673Z,100.00
2019-01-05T04:00:19.754Z,100.00
2019-01-05T04:02:59.849Z,100.00
2019-01-05T04:05:29.167Z,100.00
2019-01-05T04:08:23.294Z,99.82
2019-01-05T04:10:56.520Z,100.00
2019-01-05T04:14:00.245Z,100.00
2019-01-05T04:16:49.691Z,100.00
2019-01-05T04:19:37.742Z,100.00
2019-01-05T04:25:18.530Z,100.00
2019-01-05T04:28:16.452Z,100.00
2019-01-05T04:34:12.911Z,100.00
2019-01-05T04:37:06.487Z,100.00
2019-01-05T04:39:40.590Z,100.00
2019-01-05T04:42:12.126Z,100.00
2019-01-05T04:45:04.320Z,100.00
2019-01-05T04:47:40.998Z,100.00
2019-01-05T04:50:31.996Z,100.00
2019-01-05T04:53:39.515Z,100.00
2019-01-05T04:56:17.422Z,100.00
2019-01-05T04:59:06.054Z,100.00
2019-01-05T05:01:53.041Z,100.00
2019-01-05T05:04:40.717Z,100.00
2019-01-05T05:07:35.405Z,100.00
2019-01-05T05:10:34.339Z,100.00
2019-01-05T05:13:26.775Z,100.00
2019-01-05T05:16:06.998Z,100.00
2019-01-05T05:18:54.000Z,100.00
2019-01-05T05:21:47.152Z,100.00
2019-01-05T05:24:34.468Z,100.00
2019-01-05T05:27:21.451Z,100.00
2019-01-05T05:30:13.425Z,100.00
2019-01-05T05:33:04.001Z,100.00
2019-01-05T05:35:52.008Z,100.00
2019-01-05T05:38:43.954Z,100.00
2019-01-05T05:41:30.103Z,100.00
2019-01-05T05:44:08.079Z,100.00
2019-01-05T05:47:18.783Z,100.00
2019-01-05T05:49:54.847Z,100.00
2019-01-05T05:53:02.639Z,100.00
2019-01-05T05:55:52.569Z,100.00
2019-01-05T05:58:42.191Z,100.00
2019-01-05T06:01:35.275Z,100.00
